createdAt,value
2019-05-06T00:01:24.572Z,31.03
2019-05-06T00:03:54.204Z,30.30
2019-05-06T00:06:23.748Z,29.70
2019-05-06T00:08:54.641Z,30.05
2019-05-06T00:11:25.377Z,32.65
2019-05-06T00:13:54.503Z,33.75
2019-05-06T00:16:23.833Z,31.87
2019-05-06T00:18:54.002Z,30.82
2019-05-06T00:21:24.352Z,32.63
2019-05-06T00:23:54.555Z,31.23
2019-05-06T00:26:25.264Z,32.75
2019-05-06T00:28:55.622Z,31.05
2019-05-06T00:31:25.010Z,26.37
2019-05-06T00:33:54.150Z,24.27
2019-05-06T00:36:23.826Z,23.73
2019-05-06T00:38:54.319Z,23.90
2019-05-06T00:41:24.849Z,23.73
2019-05-06T00:43:54.601Z,23.38
2019-05-06T00:46:24.339Z,23.98
2019-05-06T00:48:54.269Z,22.13
2019-05-06T00:51:24.243Z,22.37
2019-05-06T00:54:04.475Z,21.68
2019-05-06T00:56:33.978Z,23.00
2019-05-06T00:59:03.703Z,22.45
2019-05-06T01:01:34.517Z,22.50
2019-05-06T01:04:04.768Z,22.42
2019-05-06T01:06:34.427Z,22.52
2019-05-06T01:09:06.740Z,22.10
2019-05-06T01:11:35.454Z,22.10
2019-05-06T01:14:11.957Z,24.12
2019-05-06T01:16:40.681Z,25.80
2019-05-06T01:19:09.468Z,26.95
2019-05-06T01:21:38.214Z,26.33
2019-05-06T01:24:07.028Z,25.37
2019-05-06T01:26:35.736Z,25.43
2019-05-06T01:29:04.462Z,24.55
2019-05-06T01:31:42.069Z,24.47
2019-05-06T01:34:04.283Z,26.35
2019-05-06T01:36:34.367Z,24.95
2019-05-06T01:39:16.756Z,25.80
2019-05-06T01:41:50.077Z,25.05
2019-05-06T01:44:19.088Z,25.68
2019-05-06T01:46:47.819Z,25.75
2019-05-06T01:49:16.560Z,26.57
2019-05-06T01:51:45.493Z,28.15
2019-05-06T01:54:14.362Z,27.67
2019-05-06T01:56:44.414Z,27.15
2019-05-06T01:59:13.951Z,28.45
2019-05-06T02:01:56.395Z,26.42
2019-05-06T02:04:14.036Z,28.52
2019-05-06T02:06:43.755Z,26.42
2019-05-06T02:09:15.348Z,26.93
2019-05-06T02:11:45.185Z,24.85
2019-05-06T02:14:14.593Z,25.08
2019-05-06T02:16:43.729Z,24.70
2019-05-06T02:19:14.688Z,25.52
2019-05-06T02:21:47.639Z,24.95
2019-05-06T02:24:24.388Z,26.62
2019-05-06T02:26:54.274Z,24.37
2019-05-06T02:29:25.768Z,23.90
2019-05-06T02:32:16.017Z,25.00
2019-05-06T02:34:47.328Z,25.32
2019-05-06T02:37:17.713Z,24.55
2019-05-06T02:39:46.618Z,24.30
2019-05-06T02:42:15.329Z,24.35
2019-05-06T02:44:44.416Z,24.20
2019-05-06T02:47:17.817Z,24.63
2019-05-06T02:49:49.460Z,25.77
2019-05-06T02:52:19.581Z,25.00
2019-05-06T02:54:48.302Z,24.92
2019-05-06T02:57:17.066Z,23.95
2019-05-06T02:59:45.759Z,23.83
2019-05-06T03:02:14.482Z,24.75
2019-05-06T03:04:43.712Z,22.35
2019-05-06T03:07:14.516Z,23.45
2019-05-06T03:09:44.510Z,24.32
2019-05-06T03:12:13.851Z,21.62
2019-05-06T03:14:43.730Z,22.50
2019-05-06T03:17:14.108Z,21.55
2019-05-06T03:19:45.982Z,22.85
2019-05-06T03:22:34.558Z,22.40
2019-05-06T03:25:07.783Z,23.77
2019-05-06T03:27:36.508Z,23.25
2019-05-06T03:30:07.199Z,23.47
2019-05-06T03:32:41.224Z,22.55
2019-05-06T03:35:25.614Z,25.15
2019-05-06T03:37:37.929Z,25.55
2019-05-06T03:40:06.664Z,24.85
2019-05-06T03:42:35.377Z,23.98
2019-05-06T03:45:08.521Z,23.18
2019-05-06T03:47:38.815Z,22.58
2019-05-06T03:50:07.896Z,22.13
2019-05-06T03:52:36.619Z,21.02
2019-05-06T03:55:05.447Z,21.80
2019-05-06T03:57:36.156Z,20.23
2019-05-06T04:00:07.412Z,19.75
2019-05-06T04:02:39.548Z,16.47
2019-05-06T04:05:07.067Z,21.17
2019-05-06T04:07:36.580Z,20.37
2019-05-06T04:10:07.278Z,23.50
2019-05-06T04:12:37.472Z,30.43
2019-05-06T04:15:08.066Z,39.13
2019-05-06T04:17:38.619Z,38.78
2019-05-06T04:20:12.803Z,34.90
2019-05-06T04:22:44.098Z,38.30
2019-05-06T04:25:34.000Z,36.63
2019-05-06T04:28:04.765Z,36.80
2019-05-06T04:30:33.599Z,35.08
2019-05-06T04:33:03.326Z,27.35
2019-05-06T04:35:33.767Z,26.35
2019-05-06T04:38:03.170Z,24.92
2019-05-06T04:40:33.138Z,21.70
2019-05-06T04:43:03.655Z,19.30
2019-05-06T04:45:33.718Z,15.78
2019-05-06T04:48:05.452Z,14.95
2019-05-06T04:50:34.190Z,14.38
2019-05-06T04:53:04.764Z,14.15
2019-05-06T04:55:34.864Z,11.75
2019-05-06T04:58:06.886Z,12.15
2019-05-06T05:00:37.193Z,13.00
2019-05-06T05:03:06.622Z,87.95
2019-05-06T05:05:35.531Z,13.40
2019-05-06T05:08:04.331Z,10.78
2019-05-06T05:10:43.166Z,10.72
2019-05-06T05:13:12.807Z,10.35
2019-05-06T05:16:02.281Z,13.20
2019-05-06T05:18:32.912Z,11.60
2019-05-06T05:21:02.451Z,8.90
2019-05-06T05:23:31.965Z,6.72
2019-05-06T05:26:02.694Z,6.50
2019-05-06T05:28:32.019Z,6.67
2019-05-06T05:31:03.158Z,6.92
2019-05-06T05:33:32.768Z,6.08
2019-05-06T05:36:02.089Z,7.70
2019-05-06T05:38:32.056Z,10.25
2019-05-06T05:41:03.036Z,8.30
2019-05-06T05:43:39.412Z,7.10
2019-05-06T05:46:07.172Z,6.92
2019-05-06T05:48:37.531Z,6.85
2019-05-06T05:51:06.253Z,7.30
2019-05-06T05:53:34.964Z,6.05
2019-05-06T05:56:03.997Z,6.58
2019-05-06T05:58:33.520Z,6.45
2019-05-06T06:01:04.190Z,6.17
2019-05-06T06:03:32.713Z,5.75
2019-05-06T06:06:03.115Z,5.42
2019-05-06T06:08:32.233Z,4.95
2019-05-06T06:11:12.290Z,4.75
2019-05-06T06:13:43.282Z,4.67
2019-05-06T06:16:18.706Z,4.72
2019-05-06T06:18:49.572Z,4.15
2019-05-06T06:21:34.959Z,3.77
2019-05-06T06:24:08.126Z,4.28
2019-05-06T06:26:36.914Z,4.85
2019-05-06T06:29:05.687Z,3.85
2019-05-06T06:31:35.994Z,6.55
2019-05-06T06:34:06.348Z,5.20
2019-05-06T06:36:39.418Z,6.50
2019-05-06T06:39:12.443Z,7.55
2019-05-06T06:41:42.246Z,4.78
2019-05-06T06:44:13.271Z,4.30
2019-05-06T06:46:42.949Z,3.70
2019-05-06T06:49:12.720Z,4.50
2019-05-06T06:51:42.761Z,3.40
2019-05-06T06:54:12.333Z,3.60
2019-05-06T06:57:08.294Z,3.80
2019-05-06T06:59:37.627Z,3.25
2019-05-06T07:02:07.979Z,4.25
2019-05-06T07:04:38.534Z,2.90
2019-05-06T07:07:07.582Z,3.58
2019-05-06T07:09:36.265Z,2.87
2019-05-06T07:12:05.071Z,5.45
2019-05-06T07:14:36.257Z,3.75
2019-05-06T07:17:04.280Z,3.58
2019-05-06T07:19:37.322Z,4.47
2019-05-06T07:22:06.952Z,3.00
2019-05-06T07:24:35.951Z,2.37
2019-05-06T07:27:18.215Z,7.33
2019-05-06T07:29:48.301Z,4.05
2019-05-06T07:32:17.306Z,4.62
2019-05-06T07:34:46.090Z,2.85
2019-05-06T07:37:14.798Z,2.85
2019-05-06T07:39:43.727Z,2.22
2019-05-06T07:42:14.110Z,2.40
2019-05-06T07:44:47.176Z,2.62
2019-05-06T07:47:26.078Z,4.03
2019-05-06T07:49:54.873Z,5.25
2019-05-06T07:52:23.601Z,4.75
2019-05-06T07:54:53.320Z,3.95
2019-05-06T07:57:23.800Z,3.92
2019-05-06T07:59:52.703Z,3.20
2019-05-06T08:02:22.960Z,6.00
2019-05-06T08:04:53.142Z,8.43
2019-05-06T08:07:22.401Z,3.30
2019-05-06T08:09:52.820Z,3.90
2019-05-06T08:12:22.407Z,5.70
2019-05-06T08:14:52.982Z,2.85
2019-05-06T08:17:27.691Z,2.87
2019-05-06T08:19:58.299Z,2.60
2019-05-06T08:22:46.774Z,2.12
2019-05-06T08:25:15.603Z,2.45
2019-05-06T08:27:44.355Z,2.30
2019-05-06T08:30:13.666Z,2.02
2019-05-06T08:32:42.568Z,2.35
2019-05-06T08:35:13.375Z,1.85
2019-05-06T08:37:43.410Z,2.67
2019-05-06T08:40:12.406Z,2.00
2019-05-06T08:42:42.530Z,2.10
2019-05-06T08:45:12.861Z,1.75
2019-05-06T08:47:42.509Z,1.90
2019-05-06T08:50:13.479Z,1.77
2019-05-06T08:53:04.852Z,1.77
2019-05-06T08:55:42.734Z,2.22
2019-05-06T08:58:13.811Z,1.70
2019-05-06T09:00:43.554Z,1.40
2019-05-06T09:03:14.280Z,2.00
2019-05-06T09:05:44.282Z,1.82
2019-05-06T09:08:13.746Z,1.30
2019-05-06T09:10:42.957Z,1.65
2019-05-06T09:13:12.348Z,2.47
2019-05-06T09:15:42.851Z,1.85
2019-05-06T09:18:12.414Z,1.80
2019-05-06T09:20:43.190Z,1.70
2019-05-06T09:23:12.413Z,1.70
2019-05-06T09:25:42.514Z,1.50
2019-05-06T09:28:13.237Z,1.35
2019-05-06T09:30:46.593Z,1.85
2019-05-06T09:33:18.007Z,1.80
2019-05-06T09:35:46.843Z,1.72
2019-05-06T09:38:15.588Z,1.85
2019-05-06T09:40:44.349Z,1.80
2019-05-06T09:43:13.328Z,1.42
2019-05-06T09:45:42.623Z,1.80
2019-05-06T09:48:22.410Z,1.80
2019-05-06T09:50:53.520Z,1.75
2019-05-06T09:53:23.320Z,1.35
2019-05-06T09:56:13.029Z,1.70
2019-05-06T09:58:43.044Z,1.70
2019-05-06T10:01:13.079Z,1.50
2019-05-06T10:03:42.768Z,1.85
2019-05-06T10:06:13.095Z,1.62
2019-05-06T10:08:42.067Z,1.52
2019-05-06T10:11:10.858Z,1.70
2019-05-06T10:13:39.712Z,1.30
2019-05-06T10:16:08.472Z,1.55
2019-05-06T10:18:37.303Z,1.60
2019-05-06T10:21:06.133Z,1.60
2019-05-06T10:23:34.923Z,1.60
2019-05-06T10:26:04.738Z,1.98
2019-05-06T10:28:41.376Z,1.50
2019-05-06T10:31:12.773Z,1.87
2019-05-06T10:33:43.268Z,1.60
2019-05-06T10:36:12.978Z,2.00
2019-05-06T10:38:53.616Z,1.90
2019-05-06T10:41:27.849Z,1.55
2019-05-06T10:44:27.031Z,1.92
2019-05-06T10:46:55.833Z,1.50
2019-05-06T10:49:24.666Z,1.70
2019-05-06T10:51:58.117Z,1.80
2019-05-06T10:54:26.796Z,1.65
2019-05-06T10:56:57.580Z,1.70
2019-05-06T10:59:26.358Z,1.40
2019-05-06T11:01:56.729Z,1.95
2019-05-06T11:04:25.452Z,1.55
2019-05-06T11:06:54.171Z,2.00
2019-05-06T11:09:22.989Z,1.98
2019-05-06T11:11:51.750Z,1.82
2019-05-06T11:14:22.732Z,1.55
2019-05-06T11:16:50.968Z,1.82
2019-05-06T11:19:22.402Z,1.60
2019-05-06T11:21:53.145Z,1.75
2019-05-06T11:24:23.123Z,1.80
2019-05-06T11:26:54.843Z,1.95
2019-05-06T11:29:25.205Z,1.95
2019-05-06T11:31:55.614Z,2.10
2019-05-06T11:34:44.287Z,1.82
2019-05-06T11:37:17.643Z,2.15
2019-05-06T11:39:46.353Z,2.12
2019-05-06T11:42:28.166Z,2.50
2019-05-06T11:44:45.544Z,2.22
2019-05-06T11:47:14.400Z,2.40
2019-05-06T11:49:44.174Z,2.10
2019-05-06T11:52:13.174Z,1.95
2019-05-06T11:54:42.308Z,2.10
2019-05-06T11:57:12.515Z,2.58
2019-05-06T11:59:43.325Z,2.30
2019-05-06T12:02:13.313Z,3.50
2019-05-06T12:04:42.068Z,3.58
2019-05-06T12:07:12.276Z,3.60
2019-05-06T12:09:42.629Z,3.83
2019-05-06T12:12:12.788Z,4.10
2019-05-06T12:14:43.004Z,3.25
2019-05-06T12:17:12.766Z,3.15
2019-05-06T12:19:43.248Z,3.30
2019-05-06T12:22:12.590Z,3.62
2019-05-06T12:24:43.051Z,3.50
2019-05-06T12:27:13.768Z,4.28
2019-05-06T12:29:42.936Z,3.35
2019-05-06T12:32:16.110Z,3.60
2019-05-06T12:34:44.891Z,3.42
2019-05-06T12:37:15.260Z,3.37
2019-05-06T12:39:45.638Z,3.08
2019-05-06T12:42:16.003Z,3.25
2019-05-06T12:44:46.429Z,4.42
2019-05-06T12:47:16.785Z,4.45
2019-05-06T12:49:45.594Z,2.92
2019-05-06T12:52:14.342Z,2.95
2019-05-06T12:54:43.232Z,2.67
2019-05-06T12:57:12.591Z,3.35
2019-05-06T12:59:42.527Z,3.52
2019-05-06T13:02:13.260Z,2.90
2019-05-06T13:04:51.379Z,2.77
2019-05-06T13:07:13.979Z,3.05
2019-05-06T13:09:45.331Z,3.10
2019-05-06T13:12:14.723Z,2.80
2019-05-06T13:14:43.429Z,2.72
2019-05-06T13:17:15.686Z,2.85
2019-05-06T13:19:44.184Z,2.50
2019-05-06T13:22:14.517Z,2.90
2019-05-06T13:24:43.293Z,3.87
2019-05-06T13:27:13.646Z,5.40
2019-05-06T13:29:42.877Z,3.95
2019-05-06T13:32:13.407Z,2.98
2019-05-06T13:34:42.547Z,2.55
2019-05-06T13:37:12.835Z,2.67
2019-05-06T13:39:43.519Z,2.67
2019-05-06T13:42:13.897Z,19.75
2019-05-06T13:44:42.705Z,9.30
2019-05-06T13:47:13.042Z,4.37
2019-05-06T13:49:46.381Z,2.65
2019-05-06T13:52:15.467Z,2.60
2019-05-06T13:54:44.234Z,2.60
2019-05-06T13:57:13.059Z,11.53
2019-05-06T13:59:44.134Z,5.83
2019-05-06T14:02:16.280Z,2.90
2019-05-06T14:04:45.413Z,2.83
2019-05-06T14:07:14.205Z,2.35
2019-05-06T14:09:43.829Z,2.20
2019-05-06T14:12:12.669Z,2.35
2019-05-06T14:14:43.233Z,4.30
2019-05-06T14:17:12.701Z,2.50
2019-05-06T14:19:42.948Z,3.25
2019-05-06T14:22:12.482Z,2.52
2019-05-06T14:24:46.344Z,2.52
2019-05-06T14:27:16.684Z,2.42
2019-05-06T14:29:53.412Z,2.12
2019-05-06T14:32:23.627Z,2.30
2019-05-06T14:34:54.585Z,2.47
2019-05-06T14:37:23.307Z,2.20
2019-05-06T14:39:59.203Z,2.00
2019-05-06T14:42:24.065Z,2.10
2019-05-06T14:44:52.844Z,2.02
2019-05-06T14:47:25.961Z,2.25
2019-05-06T14:49:54.699Z,1.98
2019-05-06T14:52:23.448Z,2.17
2019-05-06T14:54:53.820Z,5.20
2019-05-06T14:57:23.634Z,2.72
2019-05-06T14:59:55.407Z,2.00
2019-05-06T15:02:26.325Z,1.90
2019-05-06T15:04:54.738Z,1.82
2019-05-06T15:07:23.471Z,1.87
2019-05-06T15:10:07.657Z,2.37
2019-05-06T15:12:23.270Z,2.77
2019-05-06T15:14:52.848Z,1.65
2019-05-06T15:17:22.935Z,2.70
2019-05-06T15:19:52.704Z,1.95
2019-05-06T15:22:22.816Z,3.12
2019-05-06T15:24:53.579Z,1.80
2019-05-06T15:27:22.930Z,1.52
2019-05-06T15:29:54.625Z,1.90
2019-05-06T15:32:25.028Z,1.87
2019-05-06T15:35:13.670Z,2.27
2019-05-06T15:37:44.061Z,1.50
2019-05-06T15:40:13.328Z,2.20
2019-05-06T15:42:42.617Z,1.90
2019-05-06T15:45:12.616Z,2.30
2019-05-06T15:47:42.769Z,1.75
2019-05-06T15:50:12.745Z,1.57
2019-05-06T15:52:43.501Z,2.40
2019-05-06T15:55:12.535Z,2.30
2019-05-06T15:57:43.454Z,2.92
2019-05-06T16:00:13.196Z,2.33
2019-05-06T16:02:42.068Z,3.08
2019-05-06T16:05:13.717Z,2.10
2019-05-06T16:07:43.320Z,1.87
2019-05-06T16:10:13.317Z,1.90
2019-05-06T16:12:44.041Z,2.00
2019-05-06T16:15:13.117Z,2.15
2019-05-06T16:17:42.601Z,1.80
2019-05-06T16:20:12.934Z,1.52
2019-05-06T16:22:44.549Z,3.00
2019-05-06T16:25:16.073Z,1.82
2019-05-06T16:27:46.457Z,1.90
2019-05-06T16:30:17.317Z,2.02
2019-05-06T16:32:46.125Z,2.53
2019-05-06T16:35:15.023Z,2.47
2019-05-06T16:37:43.832Z,3.80
2019-05-06T16:40:12.817Z,3.00
2019-05-06T16:42:45.442Z,3.10
2019-05-06T16:45:19.659Z,2.62
2019-05-06T16:47:49.564Z,2.37
2019-05-06T16:50:19.884Z,2.65
2019-05-06T16:52:48.604Z,2.90
2019-05-06T16:55:19.563Z,2.95
2019-05-06T16:57:52.624Z,3.05
2019-05-06T17:00:23.608Z,2.83
2019-05-06T17:03:00.288Z,3.52
2019-05-06T17:05:33.768Z,2.40
2019-05-06T17:08:03.000Z,2.70
2019-05-06T17:10:32.665Z,3.70
2019-05-06T17:13:02.982Z,3.27
2019-05-06T17:15:32.594Z,3.00
2019-05-06T17:18:03.111Z,2.83
2019-05-06T17:20:32.689Z,2.85
2019-05-06T17:23:02.906Z,2.80
2019-05-06T17:25:33.518Z,3.75
2019-05-06T17:28:04.226Z,3.22
2019-05-06T17:30:34.560Z,3.60
2019-05-06T17:33:22.320Z,4.08
2019-05-06T17:35:52.171Z,3.55
2019-05-06T17:38:22.677Z,4.40
2019-05-06T17:40:52.434Z,3.55
2019-05-06T17:43:22.567Z,4.45
2019-05-06T17:46:01.851Z,4.92
2019-05-06T17:48:34.238Z,4.05
2019-05-06T17:51:16.925Z,3.83
2019-05-06T17:53:52.256Z,3.67
2019-05-06T17:56:22.244Z,4.65
2019-05-06T17:58:53.482Z,3.67
2019-05-06T18:01:32.400Z,4.25
2019-05-06T18:04:02.250Z,4.50
2019-05-06T18:06:33.003Z,2.98
2019-05-06T18:09:02.536Z,4.90
2019-05-06T18:11:33.232Z,4.30
2019-05-06T18:14:04.092Z,4.65
2019-05-06T18:16:33.137Z,5.55
2019-05-06T18:19:03.260Z,7.37
2019-05-06T18:21:32.165Z,8.25
2019-05-06T18:24:02.846Z,10.60
2019-05-06T18:26:33.293Z,12.05
2019-05-06T18:29:01.728Z,15.20
2019-05-06T18:31:33.433Z,15.63
2019-05-06T18:34:03.243Z,13.53
2019-05-06T18:36:32.864Z,16.95
2019-05-06T18:39:03.276Z,19.90
2019-05-06T18:41:32.904Z,16.10
2019-05-06T18:44:01.809Z,15.88
2019-05-06T18:46:32.401Z,16.97
2019-05-06T18:49:02.516Z,16.90
2019-05-06T18:51:31.355Z,17.23
2019-05-06T18:54:07.981Z,17.67
2019-05-06T18:56:36.703Z,23.75
2019-05-06T18:59:05.424Z,28.90
2019-05-06T19:01:34.180Z,26.15
2019-05-06T19:04:07.307Z,26.42
2019-05-06T19:06:38.263Z,26.05
2019-05-06T19:09:11.736Z,26.57
2019-05-06T19:11:40.477Z,26.33
2019-05-06T19:14:12.647Z,29.25
2019-05-06T19:16:49.699Z,29.15
2019-05-06T19:19:12.438Z,33.55
2019-05-06T19:21:42.812Z,27.60
2019-05-06T19:24:12.261Z,27.32
2019-05-06T19:26:42.998Z,31.12
2019-05-06T19:29:12.267Z,28.73
2019-05-06T19:31:45.008Z,27.80
2019-05-06T19:34:14.635Z,26.15
2019-05-06T19:36:43.369Z,24.40
2019-05-06T19:39:12.663Z,26.65
2019-05-06T19:41:41.622Z,27.13
2019-05-06T19:44:12.735Z,26.48
2019-05-06T19:46:42.403Z,26.82
2019-05-06T19:49:11.322Z,26.02
2019-05-06T19:51:40.200Z,24.77
2019-05-06T19:54:08.895Z,26.52
2019-05-06T19:56:37.616Z,23.00
2019-05-06T19:59:06.364Z,25.37
2019-05-06T20:01:35.176Z,22.60
2019-05-06T20:04:04.103Z,22.42
2019-05-06T20:06:39.906Z,21.12
2019-05-06T20:09:25.694Z,21.42
2019-05-06T20:12:02.777Z,23.65
2019-05-06T20:14:29.592Z,21.68
2019-05-06T20:16:58.438Z,20.37
2019-05-06T20:19:31.190Z,20.90
2019-05-06T20:21:58.880Z,21.57
2019-05-06T20:24:27.650Z,22.87
2019-05-06T20:26:58.024Z,25.97
2019-05-06T20:29:26.773Z,23.00
2019-05-06T20:31:55.611Z,24.30
2019-05-06T20:34:26.445Z,21.55
2019-05-06T20:36:55.234Z,23.03
2019-05-06T20:39:23.936Z,23.18
2019-05-06T20:41:52.672Z,49.55
2019-05-06T20:44:23.019Z,39.03
2019-05-06T20:46:52.695Z,29.95
2019-05-06T20:49:21.767Z,28.35
2019-05-06T20:51:52.155Z,24.75
2019-05-06T20:54:23.541Z,18.87
2019-05-06T20:56:53.086Z,22.70
2019-05-06T20:59:22.912Z,19.82
2019-05-06T21:01:51.848Z,19.15
2019-05-06T21:04:22.677Z,19.07
2019-05-06T21:06:50.963Z,18.12
2019-05-06T21:09:19.720Z,15.48
2019-05-06T21:11:48.517Z,16.37
2019-05-06T21:14:17.259Z,17.12
2019-05-06T21:16:48.096Z,15.93
2019-05-06T21:19:16.348Z,13.72
2019-05-06T21:21:48.188Z,16.40
2019-05-06T21:26:46.444Z,8.78
2019-05-06T21:29:15.292Z,8.68
2019-05-06T21:31:44.199Z,10.85
2019-05-06T21:34:15.232Z,8.33
2019-05-06T21:36:44.027Z,5.65
2019-05-06T21:39:13.171Z,6.83
2019-05-06T21:41:42.779Z,5.67
2019-05-06T21:44:13.243Z,5.00
2019-05-06T21:46:42.937Z,4.28
2019-05-06T21:49:12.276Z,5.90
2019-05-06T21:51:42.553Z,5.35
2019-05-06T21:54:12.652Z,4.20
2019-05-06T21:56:42.473Z,4.17
2019-05-06T21:59:12.949Z,3.80
2019-05-06T22:01:43.082Z,4.47
2019-05-06T22:04:12.856Z,3.52
2019-05-06T22:06:42.856Z,3.25
2019-05-06T22:09:12.644Z,4.17
2019-05-06T22:11:42.380Z,3.02
2019-05-06T22:14:12.258Z,3.25
2019-05-06T22:16:43.526Z,3.50
2019-05-06T22:19:12.219Z,3.00
2019-05-06T22:22:03.190Z,3.75
2019-05-06T22:24:55.235Z,2.90
2019-05-06T22:27:21.965Z,3.27
2019-05-06T22:29:52.211Z,2.50
2019-05-06T22:32:23.117Z,2.52
2019-05-06T22:34:51.467Z,2.62
2019-05-06T22:37:21.986Z,2.58
2019-05-06T22:39:52.585Z,2.95
2019-05-06T22:42:22.642Z,2.37
2019-05-06T22:44:51.426Z,2.83
2019-05-06T22:47:20.189Z,2.30
2019-05-06T22:49:53.876Z,2.70
2019-05-06T22:52:19.420Z,2.60
2019-05-06T22:54:48.265Z,2.67
2019-05-06T22:57:16.987Z,3.20
2019-05-06T22:59:45.767Z,2.90
2019-05-06T23:02:19.195Z,2.58
2019-05-06T23:04:53.060Z,2.83
2019-05-06T23:07:24.657Z,2.85
2019-05-06T23:09:53.403Z,2.87
2019-05-06T23:12:23.139Z,2.72
2019-05-06T23:14:52.783Z,2.75
2019-05-06T23:17:21.915Z,2.80
2019-05-06T23:19:52.726Z,2.60
2019-05-06T23:22:22.649Z,2.65
2019-05-06T23:24:52.233Z,2.62
2019-05-06T23:27:23.270Z,3.05
2019-05-06T23:29:52.662Z,2.70
2019-05-06T23:32:22.914Z,2.85
2019-05-06T23:34:52.352Z,2.90
2019-05-06T23:37:22.498Z,3.02
2019-05-06T23:40:28.662Z,3.33
2019-05-06T23:43:33.675Z,3.08
2019-05-06T23:46:39.248Z,3.77
2019-05-06T23:49:44.233Z,3.30
2019-05-06T23:52:49.501Z,3.60
2019-05-06T23:55:54.724Z,3.62
2019-05-06T23:58:22.581Z,3.90
